Terminal Aerodrome Forecast
Issued by NWS Sterling, VA

Home | Current Version | Previous Version | Text Only | Print | Product List | Glossary On
Versions: 1 2 3 4 5 6 7 8 9 10 11 12 13 14 15 16 17 18 19 20 21
527
FTUS41 KLWX 090531
TAFDCA
TAF
KDCA 090531Z 0906/1006 13006KT P6SM -RA OVC012
     FM090900 05006KT 3SM -RASN OVC008
     FM091300 03008KT 1/2SM SN OVC007
     FM091600 35007KT 2SM -SN OVC012=

USA.gov is the U.S. government's official web portal to all federal, state and local government web resources and services.